Terminal Aerodrome Forecast
Issued by NWS

Home | Current Version | Previous Version | Graphics & Text | Print | Product List | Glossary On
Versions: 1 2 3 4 5 6 7 8 9 10 11 12 13
684
FTUS43 KFGF 211132
TAFBJI
TAF
KBJI 211132Z 2112/2212 22004KT P6SM BKN100
     FM211600 31005KT P6SM SCT100
     FM212000 31009KT P6SM FEW250
     FM220200 30004KT P6SM FEW250=

USA.gov is the U.S. government's official web portal to all federal, state and local government web resources and services.